Terminal Aerodrome Forecast
Issued by NWS

Home | Current Version | Previous Version | Text Only | Print | Product List | Glossary On
Versions: 1 2 3 4 5 6 7 8 9 10 11 12 13 14
000
FTPA31 PHFO 292330
TAFHOG
TAF
PHOG 292330Z 3000/3024 02011KT P6SM FEW030 SCT050
     FM300500 05005KT P6SM FEW030 FEW040
     FM301900 04012KT P6SM FEW030 FEW050
      AMD LTD TO VIS AND WIND 3009/3016=

USA.gov is the U.S. government's official web portal to all federal, state and local government web resources and services.